createdAt,value
2022-08-09T06:39:48.498Z,22.10
2022-08-09T06:42:58.112Z,22.40
2022-08-09T06:46:07.842Z,22.60
2022-08-09T06:49:16.044Z,22.80
2022-08-09T06:52:17.796Z,23.10
2022-08-09T06:55:22.936Z,23.30
2022-08-09T06:58:40.806Z,23.60
2022-08-09T07:01:54.266Z,23.70
2022-08-09T07:05:00.805Z,23.80
2022-08-09T07:08:02.473Z,24.00
2022-08-09T07:11:06.424Z,24.20
2022-08-09T07:14:17.979Z,24.50
2022-08-09T07:17:28.500Z,24.80
2022-08-09T07:20:43.737Z,25.20
2022-08-09T07:23:56.389Z,25.70
2022-08-09T07:27:01.379Z,25.90
2022-08-09T07:30:04.075Z,26.10
2022-08-09T07:33:12.395Z,26.30
2022-08-09T07:36:18.422Z,26.70
2022-08-09T07:39:40.842Z,26.90
2022-08-09T07:42:55.974Z,27.30
2022-08-09T07:46:03.008Z,27.70
2022-08-09T07:49:05.554Z,27.90
2022-08-09T07:52:17.059Z,28.20
2022-08-09T07:55:29.012Z,28.40
2022-08-09T08:34:36.374Z,28.90
2022-08-09T08:37:41.726Z,29.10
2022-08-09T08:41:01.734Z,29.20
2022-08-09T08:44:09.143Z,29.30
2022-08-09T08:47:15.841Z,29.10
2022-08-09T08:50:19.854Z,28.80
2022-08-09T08:53:22.337Z,29.00
2022-08-09T08:56:28.055Z,29.20
2022-08-09T08:59:46.777Z,29.40
2022-08-09T09:02:52.813Z,29.50
2022-08-09T09:05:58.839Z,29.60
2022-08-09T09:09:06.735Z,29.70
2022-08-09T09:12:29.526Z,29.60
2022-08-09T09:15:31.398Z,29.60
2022-08-09T09:18:35.380Z,29.30
2022-08-09T09:22:05.203Z,29.50
2022-08-09T09:26:01.787Z,29.60
2022-08-09T09:29:02.387Z,29.70
2022-08-09T09:32:05.743Z,29.70
2022-08-09T09:35:17.805Z,29.90
2022-08-09T09:38:36.303Z,29.80
2022-08-09T09:41:51.256Z,29.40
2022-08-09T09:45:01.081Z,29.30
2022-08-09T09:48:05.322Z,29.50
2022-08-09T09:51:07.195Z,29.60
2022-08-09T09:54:20.560Z,29.50
2022-08-09T09:58:02.605Z,29.40
2022-08-09T10:00:54.829Z,29.30
2022-08-09T10:04:00.104Z,29.10
2022-08-09T10:07:09.748Z,29.10
2022-08-09T10:10:11.941Z,29.30
2022-08-09T10:13:13.704Z,29.40
2022-08-09T10:16:57.200Z,29.30
2022-08-09T10:19:56.997Z,29.20
2022-08-09T10:23:12.289Z,29.20
2022-08-09T10:26:15.552Z,28.90
2022-08-09T10:30:27.340Z,28.80
2022-08-09T10:32:45.441Z,28.90
2022-08-09T10:35:49.169Z,28.90
2022-08-09T10:38:56.873Z,29.00
2022-08-09T10:42:01.677Z,28.90
2022-08-09T10:45:12.028Z,28.80
2022-08-09T10:48:39.114Z,28.80
2022-08-09T10:52:05.292Z,28.60
2022-08-09T10:55:28.867Z,28.50
2022-08-09T10:58:55.351Z,28.40
2022-08-09T11:03:15.687Z,28.40
2022-08-09T11:05:24.900Z,28.40
2022-08-09T11:08:47.297Z,28.50
2022-08-09T11:11:57.865Z,28.50
2022-08-09T11:15:23.816Z,28.30
2022-08-09T11:18:46.023Z,28.20
2022-08-09T11:22:05.168Z,28.30
2022-08-09T11:25:15.449Z,28.20
2022-08-09T11:28:56.363Z,28.20
2022-08-09T11:31:58.873Z,28.30
2022-08-09T11:35:02.600Z,28.40
2022-08-09T11:38:19.640Z,28.40
2022-08-09T11:41:37.691Z,28.40
2022-08-09T11:44:45.341Z,28.10
2022-08-09T11:47:53.103Z,27.90
2022-08-09T11:51:38.236Z,27.80
2022-08-09T11:54:28.202Z,27.60
2022-08-09T11:58:00.824Z,27.40
2022-08-09T12:02:15.988Z,27.40
2022-08-09T12:04:38.527Z,27.30
2022-08-09T12:07:42.166Z,27.20
2022-08-09T12:10:48.305Z,27.30
2022-08-09T12:14:07.540Z,27.30
2022-08-09T12:17:34.305Z,27.30
2022-08-09T12:20:41.944Z,27.20
2022-08-09T12:23:58.130Z,27.20
2022-08-09T12:29:10.221Z,27.10
2022-08-09T12:30:40.405Z,27.10
2022-08-09T12:33:58.342Z,27.10
2022-08-09T12:37:21.300Z,27.10
2022-08-09T12:40:28.465Z,27.00
2022-08-09T12:44:06.802Z,27.00
2022-08-09T12:46:54.170Z,27.00
2022-08-09T12:50:14.889Z,27.00
2022-08-09T12:53:37.017Z,26.90
2022-08-09T12:56:51.400Z,26.80
2022-08-09T13:00:11.694Z,26.80
2022-08-09T13:03:24.597Z,26.70
2022-08-09T13:06:36.888Z,26.60
2022-08-09T13:09:52.769Z,26.50
2022-08-09T13:13:09.635Z,26.40
2022-08-09T13:16:15.674Z,26.50
2022-08-09T13:20:08.554Z,26.50
2022-08-09T13:23:04.884Z,26.60
2022-08-09T13:26:11.865Z,26.40
2022-08-09T13:29:16.269Z,26.40
2022-08-09T13:32:26.420Z,26.40
2022-08-09T13:35:34.622Z,26.30
2022-08-09T13:38:55.450Z,26.20
2022-08-09T13:42:11.938Z,26.20
2022-08-09T13:45:15.958Z,26.30
2022-08-09T13:48:19.381Z,26.20
2022-08-09T13:51:21.138Z,26.20
2022-08-09T13:54:25.924Z,26.20
2022-08-09T13:57:36.809Z,26.20
2022-08-09T14:00:49.980Z,26.20
2022-08-09T14:04:03.702Z,26.30
2022-08-09T14:07:07.240Z,26.40
2022-08-09T14:10:17.386Z,26.40
2022-08-09T14:14:24.563Z,26.50
2022-08-09T14:16:56.571Z,26.50
2022-08-09T14:20:01.244Z,26.40
2022-08-09T14:23:05.746Z,26.40
2022-08-09T14:26:10.075Z,26.30
2022-08-09T14:30:15.141Z,26.30
2022-08-09T14:32:37.943Z,26.30
2022-08-09T14:35:52.831Z,26.10
2022-08-09T14:38:55.287Z,26.10
2022-08-09T14:41:57.054Z,26.10
2022-08-09T14:45:00.893Z,26.00
2022-08-09T14:48:03.002Z,25.90
2022-08-09T14:51:05.750Z,25.80
2022-08-09T14:54:10.699Z,25.80
2022-08-09T14:57:16.699Z,25.80
2022-08-09T15:00:18.477Z,25.80
2022-08-09T15:03:20.912Z,25.80
2022-08-09T15:06:22.945Z,25.80
2022-08-09T15:10:03.367Z,25.90
2022-08-09T15:12:49.098Z,25.90
2022-08-09T15:15:51.868Z,26.00
2022-08-09T15:18:53.963Z,26.10
2022-08-09T15:22:02.669Z,26.10
2022-08-09T15:25:04.867Z,26.10
2022-08-09T15:28:26.158Z,26.10
2022-08-09T15:31:41.045Z,26.10
2022-08-09T15:34:43.796Z,26.20
2022-08-09T15:37:56.231Z,26.20
2022-08-09T15:41:10.119Z,26.20
2022-08-09T15:44:12.201Z,26.20
2022-08-09T15:47:23.505Z,26.20
2022-08-09T15:50:39.139Z,26.10
2022-08-09T15:54:05.507Z,26.00
2022-08-09T15:57:11.361Z,25.90
2022-08-09T16:00:21.868Z,25.90
2022-08-09T16:03:38.165Z,25.90
2022-08-09T16:06:44.610Z,25.80
2022-08-09T16:10:04.383Z,25.70
2022-08-09T16:13:18.711Z,25.70
2022-08-09T16:16:31.570Z,25.70
2022-08-09T16:19:36.788Z,25.60
2022-08-09T16:22:42.449Z,25.50
2022-08-09T16:25:50.619Z,25.40
2022-08-09T16:28:52.282Z,25.40
2022-08-09T16:32:12.640Z,25.30
2022-08-09T16:35:57.216Z,25.40
2022-08-09T16:38:42.165Z,25.40
2022-08-09T16:42:23.752Z,25.30
2022-08-09T16:45:26.400Z,25.40
2022-08-09T16:48:39.565Z,25.30
2022-08-09T16:51:53.880Z,25.30
2022-08-09T16:54:57.214Z,25.30
2022-08-09T16:58:08.468Z,25.30
2022-08-09T17:01:11.308Z,25.20
2022-08-09T17:04:24.443Z,25.20
2022-08-09T17:08:43.077Z,25.20
2022-08-09T17:10:51.830Z,25.20
2022-08-09T17:14:01.362Z,25.30
2022-08-09T17:17:23.340Z,25.10
2022-08-09T17:36:24.877Z,24.80
2022-08-09T17:39:27.795Z,24.80
2022-08-09T17:42:49.656Z,24.70
2022-08-09T17:46:05.735Z,24.70
2022-08-09T17:49:08.877Z,24.60
2022-08-09T17:52:21.948Z,24.50
2022-08-09T17:55:24.281Z,24.50
2022-08-09T17:58:45.931Z,24.40
2022-08-09T18:02:07.978Z,24.40
2022-08-09T18:05:13.007Z,24.30
2022-08-09T18:08:14.980Z,24.20
2022-08-09T18:11:18.686Z,24.20
2022-08-09T18:14:25.866Z,24.10
2022-08-09T18:18:02.124Z,24.00
2022-08-09T18:21:10.391Z,24.00
2022-08-09T18:24:15.335Z,23.90
2022-08-09T18:27:18.875Z,23.80
2022-08-09T18:30:49.728Z,23.80
2022-08-09T18:33:53.613Z,23.70
2022-08-09T18:36:55.829Z,23.50
2022-08-09T18:39:57.790Z,23.50
2022-08-09T18:42:59.560Z,23.40
2022-08-09T18:46:49.153Z,23.30
2022-08-09T18:49:23.853Z,23.20
2022-08-09T18:52:35.341Z,23.20
2022-08-09T18:55:56.432Z,23.10
2022-08-09T18:59:01.195Z,23.00
2022-08-09T19:02:03.413Z,23.00
2022-08-09T19:05:20.076Z,22.90
2022-08-09T19:08:28.312Z,22.90
2022-08-09T19:11:37.813Z,22.70
2022-08-09T19:14:40.257Z,22.70
2022-08-09T19:17:54.945Z,22.60
2022-08-09T19:21:00.745Z,22.60
2022-08-09T19:24:33.433Z,22.60
2022-08-09T19:27:28.781Z,22.50
2022-08-09T19:30:39.829Z,22.50
2022-08-09T19:33:46.115Z,22.50
2022-08-09T19:36:47.858Z,22.40
2022-08-09T19:40:03.759Z,22.40
2022-08-09T19:46:34.176Z,22.30
2022-08-09T19:50:09.647Z,22.20
2022-08-09T19:52:59.290Z,22.20
2022-08-09T19:56:06.804Z,22.20
2022-08-09T19:59:39.786Z,22.10
2022-08-09T20:04:23.941Z,22.00
2022-08-09T20:05:51.960Z,21.90
2022-08-09T20:08:56.783Z,21.90
2022-08-09T20:12:02.425Z,21.90
2022-08-09T20:15:10.408Z,21.80
2022-08-09T20:18:28.502Z,21.80
2022-08-09T20:21:40.726Z,21.80
2022-08-09T20:25:24.277Z,21.80
2022-08-09T20:28:34.094Z,21.70
2022-08-09T20:31:40.743Z,21.60
2022-08-09T20:34:58.053Z,21.50
2022-08-09T20:38:20.584Z,21.50
2022-08-09T20:41:35.220Z,21.50
2022-08-09T20:44:39.084Z,21.50
2022-08-09T20:47:48.502Z,21.40
2022-08-09T20:50:55.618Z,21.40
2022-08-09T20:54:00.074Z,21.40
2022-08-09T20:57:05.696Z,21.40
2022-08-09T21:00:22.096Z,21.30
2022-08-09T21:03:39.400Z,21.30
2022-08-09T21:06:54.962Z,21.20
2022-08-09T21:09:58.349Z,21.30
2022-08-09T21:13:57.967Z,21.20
2022-08-09T21:16:59.338Z,21.20
2022-08-09T21:20:17.810Z,21.10
2022-08-09T21:23:47.250Z,21.10
2022-08-09T21:26:46.349Z,21.00
2022-08-09T21:29:50.035Z,20.90
2022-08-09T21:32:53.620Z,20.90
2022-08-09T21:35:55.296Z,20.80
2022-08-09T21:39:01.017Z,20.80
2022-08-09T21:42:10.493Z,20.80
2022-08-09T21:45:17.357Z,20.80
2022-08-09T21:48:19.246Z,20.70
2022-08-09T21:51:35.940Z,20.60
2022-08-09T21:55:04.734Z,20.60
2022-08-09T21:58:06.949Z,20.50
2022-08-09T22:01:26.123Z,20.50
2022-08-09T22:04:57.320Z,20.50
2022-08-09T22:08:00.479Z,20.40
2022-08-09T22:12:06.767Z,20.40
2022-08-09T22:14:23.944Z,20.40
2022-08-09T22:17:31.817Z,20.20
2022-08-09T22:20:34.240Z,20.20
2022-08-09T22:23:59.593Z,20.10
2022-08-09T22:27:31.735Z,20.00
2022-08-09T22:30:37.833Z,20.00
2022-08-09T22:33:48.915Z,19.90
2022-08-09T22:36:51.088Z,19.90
2022-08-09T22:39:57.841Z,19.80
2022-08-09T22:43:00.541Z,19.80
2022-08-09T22:48:11.356Z,19.80
2022-08-09T22:49:24.568Z,19.80
2022-08-09T22:52:26.261Z,19.80
2022-08-09T22:55:39.728Z,19.80
2022-08-09T22:58:51.489Z,19.70
2022-08-09T23:01:53.242Z,19.70
2022-08-09T23:04:56.853Z,19.80
2022-08-09T23:08:22.959Z,19.60
2022-08-09T23:11:31.512Z,19.50
2022-08-09T23:14:41.897Z,19.50
2022-08-09T23:17:44.334Z,19.40
2022-08-09T23:20:46.247Z,19.40
2022-08-09T23:24:05.124Z,19.30
2022-08-09T23:27:08.327Z,19.40
2022-08-09T23:30:10.466Z,19.30
2022-08-09T23:33:12.147Z,19.40
2022-08-09T23:36:14.016Z,19.30
2022-08-09T23:39:15.779Z,19.30
2022-08-09T23:42:17.494Z,19.30
2022-08-09T23:45:37.237Z,19.20
2022-08-09T23:48:40.100Z,19.20
2022-08-09T23:51:41.779Z,19.20
2022-08-09T23:54:44.430Z,19.20
2022-08-09T23:57:56.229Z,19.20
